sensor_id;sensor_type;location;lat;lon;timestamp;pressure;altitude;pressure_sealevel;temperature;humidity
57086;BME280;42964;42.910;23.792;2023-09-19T00:01:24;97964.13;;;14.72;86.88
57086;BME280;42964;42.910;23.792;2023-09-19T00:06:24;97961.00;;;15.07;84.54
57086;BME280;42964;42.910;23.792;2023-09-19T00:11:24;97957.81;;;15.41;82.86
57086;BME280;42964;42.910;23.792;2023-09-19T00:16:25;97957.31;;;15.68;81.25
57086;BME280;42964;42.910;23.792;2023-09-19T00:21:25;97949.31;;;15.79;78.68
57086;BME280;42964;42.910;23.792;2023-09-19T00:26:23;97971.03;;;15.83;76.94
57086;BME280;42964;42.910;23.792;2023-09-19T00:31:23;97980.88;;;15.68;77.27
57086;BME280;42964;42.910;23.792;2023-09-19T00:36:21;97971.78;;;15.40;78.62
57086;BME280;42964;42.910;23.792;2023-09-19T00:41:20;97968.34;;;15.36;79.07
57086;BME280;42964;42.910;23.792;2023-09-19T00:46:20;97963.19;;;15.33;78.99
57086;BME280;42964;42.910;23.792;2023-09-19T00:51:19;97963.44;;;15.18;80.02
57086;BME280;42964;42.910;23.792;2023-09-19T00:56:19;97957.94;;;15.33;80.02
57086;BME280;42964;42.910;23.792;2023-09-19T01:01:19;97965.66;;;15.41;80.12
57086;BME280;42964;42.910;23.792;2023-09-19T01:06:19;97962.88;;;15.50;79.50
57086;BME280;42964;42.910;23.792;2023-09-19T01:11:35;97958.91;;;15.77;78.71
57086;BME280;42964;42.910;23.792;2023-09-19T01:16:58;97950.75;;;15.96;77.81
57086;BME280;42964;42.910;23.792;2023-09-19T01:32:51;97946.00;;;16.16;76.09
57086;BME280;42964;42.910;23.792;2023-09-19T01:37:51;97940.31;;;15.94;77.04
57086;BME280;42964;42.910;23.792;2023-09-19T01:48:41;97944.47;;;15.58;78.38
57086;BME280;42964;42.910;23.792;2023-09-19T01:54:01;97953.63;;;15.32;79.13
57086;BME280;42964;42.910;23.792;2023-09-19T01:59:06;97941.13;;;14.97;78.76
57086;BME280;42964;42.910;23.792;2023-09-19T02:04:07;97942.53;;;14.57;80.07
57086;BME280;42964;42.910;23.792;2023-09-19T02:09:08;97937.78;;;14.22;83.87
57086;BME280;42964;42.910;23.792;2023-09-19T02:14:07;97937.78;;;14.22;84.50
57086;BME280;42964;42.910;23.792;2023-09-19T02:19:07;97950.84;;;14.20;83.35
57086;BME280;42964;42.910;23.792;2023-09-19T02:24:06;97957.03;;;14.15;84.54
57086;BME280;42964;42.910;23.792;2023-09-19T02:29:07;97953.72;;;13.97;84.70
57086;BME280;42964;42.910;23.792;2023-09-19T02:34:07;97953.72;;;13.97;85.00
57086;BME280;42964;42.910;23.792;2023-09-19T02:39:07;97964.16;;;13.97;85.22
57086;BME280;42964;42.910;23.792;2023-09-19T02:44:07;97965.06;;;13.95;85.09
57086;BME280;42964;42.910;23.792;2023-09-19T02:49:06;97952.91;;;13.94;85.00
57086;BME280;42964;42.910;23.792;2023-09-19T02:54:05;97946.00;;;13.88;86.10
57086;BME280;42964;42.910;23.792;2023-09-19T02:59:04;97954.72;;;13.86;86.13
57086;BME280;42964;42.910;23.792;2023-09-19T03:04:05;97940.88;;;13.81;86.84
57086;BME280;42964;42.910;23.792;2023-09-19T03:09:07;97937.47;;;13.75;86.91
57086;BME280;42964;42.910;23.792;2023-09-19T03:14:12;97920.91;;;13.76;86.83
57086;BME280;42964;42.910;23.792;2023-09-19T03:19:11;97904.47;;;13.71;86.86
57086;BME280;42964;42.910;23.792;2023-09-19T03:24:10;97907.94;;;13.72;86.95
57086;BME280;42964;42.910;23.792;2023-09-19T03:29:10;97898.44;;;13.66;87.42
57086;BME280;42964;42.910;23.792;2023-09-19T03:34:09;97907.13;;;13.67;87.19
57086;BME280;42964;42.910;23.792;2023-09-19T03:39:08;97929.03;;;13.47;88.29
57086;BME280;42964;42.910;23.792;2023-09-19T03:44:07;97922.03;;;13.51;88.04
57086;BME280;42964;42.910;23.792;2023-09-19T03:49:06;97924.72;;;13.43;87.96
57086;BME280;42964;42.910;23.792;2023-09-19T03:54:05;97926.44;;;13.46;87.98
57086;BME280;42964;42.910;23.792;2023-09-19T03:59:04;97925.63;;;13.39;87.74
57086;BME280;42964;42.910;23.792;2023-09-19T04:04:03;97906.47;;;13.42;87.43
57086;BME280;42964;42.910;23.792;2023-09-19T04:09:08;97924.75;;;13.40;87.70
57086;BME280;42964;42.910;23.792;2023-09-19T04:14:07;97939.50;;;13.40;87.43
57086;BME280;42964;42.910;23.792;2023-09-19T04:19:06;97935.28;;;13.28;87.95
57086;BME280;42964;42.910;23.792;2023-09-19T04:24:05;97936.94;;;13.38;87.55
57086;BME280;42964;42.910;23.792;2023-09-19T04:29:05;97945.56;;;13.43;87.30
57086;BME280;42964;42.910;23.792;2023-09-19T04:34:04;97952.53;;;13.41;87.29
57086;BME280;42964;42.910;23.792;2023-09-19T04:39:03;97971.63;;;13.42;87.30
57086;BME280;42964;42.910;23.792;2023-09-19T04:44:07;97965.59;;;13.38;87.00
57086;BME280;42964;42.910;23.792;2023-09-19T04:49:09;97956.81;;;13.50;87.49
57086;BME280;42964;42.910;23.792;2023-09-19T04:54:07;97952.34;;;13.66;87.11
57086;BME280;42964;42.910;23.792;2023-09-19T04:59:06;97953.06;;;13.77;86.41
57086;BME280;42964;42.910;23.792;2023-09-19T05:04:05;97959.88;;;13.92;86.43
57086;BME280;42964;42.910;23.792;2023-09-19T05:09:04;97950.09;;;14.11;86.21
57086;BME280;42964;42.910;23.792;2023-09-19T05:14:04;97951.53;;;14.35;85.10
57086;BME280;42964;42.910;23.792;2023-09-19T05:19:03;97934.88;;;14.44;85.35
57086;BME280;42964;42.910;23.792;2023-09-19T05:24:02;97940.63;;;14.70;85.44
57086;BME280;42964;42.910;23.792;2023-09-19T05:29:01;97930.59;;;15.01;84.63
57086;BME280;42964;42.910;23.792;2023-09-19T05:34:02;97926.78;;;15.22;83.62
57086;BME280;42964;42.910;23.792;2023-09-19T05:39:00;97920.53;;;15.30;82.93
57086;BME280;42964;42.910;23.792;2023-09-19T05:44:00;97890.97;;;15.24;82.41
57086;BME280;42964;42.910;23.792;2023-09-19T05:48:59;97913.25;;;15.45;81.86
57086;BME280;42964;42.910;23.792;2023-09-19T05:53:57;97909.53;;;15.60;81.31
57086;BME280;42964;42.910;23.792;2023-09-19T05:58:57;97861.88;;;15.44;81.04
57086;BME280;42964;42.910;23.792;2023-09-19T06:03:56;97888.13;;;15.85;80.60
57086;BME280;42964;42.910;23.792;2023-09-19T06:08:54;97884.06;;;16.14;80.00
57086;BME280;42964;42.910;23.792;2023-09-19T06:13:53;97883.50;;;16.40;79.49
57086;BME280;42964;42.910;23.792;2023-09-19T06:18:52;97883.66;;;16.71;77.59
57086;BME280;42964;42.910;23.792;2023-09-19T06:23:51;97876.09;;;16.96;76.30
57086;BME280;42964;42.910;23.792;2023-09-19T06:28:51;97872.91;;;17.19;75.13
57086;BME280;42964;42.910;23.792;2023-09-19T06:33:50;97876.41;;;17.18;73.13
57086;BME280;42964;42.910;23.792;2023-09-19T06:38:48;97879.59;;;17.31;76.95
57086;BME280;42964;42.910;23.792;2023-09-19T06:43:50;97876.34;;;17.54;75.30
57086;BME280;42964;42.910;23.792;2023-09-19T06:48:52;97877.34;;;17.50;75.12
57086;BME280;42964;42.910;23.792;2023-09-19T06:53:51;97865.25;;;17.44;74.42
57086;BME280;42964;42.910;23.792;2023-09-19T06:58:53;97868.69;;;17.79;73.78
57086;BME280;42964;42.910;23.792;2023-09-19T07:03:52;97884.63;;;18.04;72.37
57086;BME280;42964;42.910;23.792;2023-09-19T07:08:51;97885.75;;;18.25;70.85
57086;BME280;42964;42.910;23.792;2023-09-19T07:13:51;97891.16;;;18.49;70.92
57086;BME280;42964;42.910;23.792;2023-09-19T07:18:50;97911.94;;;18.56;70.26
57086;BME280;42964;42.910;23.792;2023-09-19T07:23:49;97897.59;;;18.68;69.80
57086;BME280;42964;42.910;23.792;2023-09-19T07:28:48;97895.31;;;19.12;67.82
57086;BME280;42964;42.910;23.792;2023-09-19T07:33:47;97873.47;;;19.62;65.67
57086;BME280;42964;42.910;23.792;2023-09-19T07:38:46;97730.09;;;19.47;61.91
57086;BME280;42964;42.910;23.792;2023-09-19T07:43:46;97841.78;;;20.80;61.28
57086;BME280;42964;42.910;23.792;2023-09-19T07:48:45;97845.22;;;21.45;57.50
57086;BME280;42964;42.910;23.792;2023-09-19T07:53:47;97837.63;;;21.97;55.49
57086;BME280;42964;42.910;23.792;2023-09-19T07:58:47;97842.78;;;22.38;53.53
57086;BME280;42964;42.910;23.792;2023-09-19T08:03:45;97835.00;;;22.54;50.85
57086;BME280;42964;42.910;23.792;2023-09-19T08:08:44;97844.63;;;22.74;50.04
57086;BME280;42964;42.910;23.792;2023-09-19T08:13:43;97832.44;;;22.89;50.12
57086;BME280;42964;42.910;23.792;2023-09-19T08:18:47;97830.25;;;23.32;49.41
57086;BME280;42964;42.910;23.792;2023-09-19T08:23:46;97827.00;;;23.61;50.19
57086;BME280;42964;42.910;23.792;2023-09-19T08:28:45;97814.59;;;23.95;49.45
57086;BME280;42964;42.910;23.792;2023-09-19T08:33:44;97819.06;;;24.11;48.31
57086;BME280;42964;42.910;23.792;2023-09-19T08:38:47;97812.09;;;24.41;47.43
57086;BME280;42964;42.910;23.792;2023-09-19T08:43:48;97803.84;;;24.62;47.13
57086;BME280;42964;42.910;23.792;2023-09-19T08:49:36;97789.59;;;24.79;47.15
57086;BME280;42964;42.910;23.792;2023-09-19T08:54:37;97785.13;;;24.95;45.94
57086;BME280;42964;42.910;23.792;2023-09-19T08:59:38;97751.72;;;24.61;46.52
57086;BME280;42964;42.910;23.792;2023-09-19T09:04:41;97778.97;;;24.95;45.24
57086;BME280;42964;42.910;23.792;2023-09-19T09:09:41;97786.16;;;25.23;44.45
57086;BME280;42964;42.910;23.792;2023-09-19T09:14:45;97786.66;;;25.44;44.18
57086;BME280;42964;42.910;23.792;2023-09-19T09:19:46;97781.28;;;25.60;44.43
57086;BME280;42964;42.910;23.792;2023-09-19T09:29:53;97760.66;;;25.92;43.11
57086;BME280;42964;42.910;23.792;2023-09-19T09:34:55;97762.44;;;26.06;42.83
57086;BME280;42964;42.910;23.792;2023-09-19T09:39:56;97766.34;;;26.14;42.42
57086;BME280;42964;42.910;23.792;2023-09-19T09:50:26;97744.00;;;26.71;41.84
57086;BME280;42964;42.910;23.792;2023-09-19T09:56:06;97734.97;;;27.27;41.22
57086;BME280;42964;42.910;23.792;2023-09-19T10:01:06;97719.06;;;27.25;39.84
57086;BME280;42964;42.910;23.792;2023-09-19T10:06:09;97737.53;;;27.54;39.40
57086;BME280;42964;42.910;23.792;2023-09-19T10:11:24;97732.16;;;27.79;39.96
57086;BME280;42964;42.910;23.792;2023-09-19T10:16:30;97725.38;;;28.12;38.82
57086;BME280;42964;42.910;23.792;2023-09-19T10:21:30;97698.78;;;28.23;38.53
57086;BME280;42964;42.910;23.792;2023-09-19T10:26:30;97727.56;;;28.55;37.89
57086;BME280;42964;42.910;23.792;2023-09-19T10:31:31;97723.41;;;28.51;36.47
57086;BME280;42964;42.910;23.792;2023-09-19T10:36:34;97667.22;;;28.17;36.78
57086;BME280;42964;42.910;23.792;2023-09-19T10:41:34;97716.50;;;28.73;36.89
57086;BME280;42964;42.910;23.792;2023-09-19T10:46:33;97711.38;;;28.70;36.27
57086;BME280;42964;42.910;23.792;2023-09-19T10:51:39;97708.94;;;28.66;37.33
57086;BME280;42964;42.910;23.792;2023-09-19T10:56:46;97686.38;;;28.71;37.11
57086;BME280;42964;42.910;23.792;2023-09-19T11:01:49;97706.09;;;28.92;35.36
57086;BME280;42964;42.910;23.792;2023-09-19T11:07:12;97704.91;;;28.96;36.28
57086;BME280;42964;42.910;23.792;2023-09-19T11:12:12;97701.00;;;28.89;35.64
57086;BME280;42964;42.910;23.792;2023-09-19T11:17:35;97701.97;;;28.64;35.76
57086;BME280;42964;42.910;23.792;2023-09-19T11:33:23;97680.69;;;29.33;36.25
57086;BME280;42964;42.910;23.792;2023-09-19T11:43:40;97664.25;;;29.71;34.31
57086;BME280;42964;42.910;23.792;2023-09-19T11:48:40;97679.69;;;29.23;35.10
57086;BME280;42964;42.910;23.792;2023-09-19T11:53:40;97663.34;;;28.92;36.29
57086;BME280;42964;42.910;23.792;2023-09-19T11:58:41;97657.25;;;28.43;36.06
57086;BME280;42964;42.910;23.792;2023-09-19T12:03:46;97645.34;;;28.36;36.61
57086;BME280;42964;42.910;23.792;2023-09-19T12:08:48;97635.41;;;28.14;37.17
57086;BME280;42964;42.910;23.792;2023-09-19T12:13:49;97646.31;;;27.74;38.41
57086;BME280;42964;42.910;23.792;2023-09-19T12:18:49;97627.19;;;27.44;38.39
57086;BME280;42964;42.910;23.792;2023-09-19T12:28:58;97651.94;;;27.20;39.15
57086;BME280;42964;42.910;23.792;2023-09-19T12:33:58;97633.97;;;26.98;39.73
57086;BME280;42964;42.910;23.792;2023-09-19T12:38:59;97646.94;;;26.90;39.80
57086;BME280;42964;42.910;23.792;2023-09-19T12:43:58;97636.50;;;26.99;39.50
57086;BME280;42964;42.910;23.792;2023-09-19T12:49:18;97598.47;;;27.10;39.21
57086;BME280;42964;42.910;23.792;2023-09-19T12:54:17;97642.91;;;27.10;39.47
57086;BME280;42964;42.910;23.792;2023-09-19T12:59:16;97640.75;;;27.40;39.38
57086;BME280;42964;42.910;23.792;2023-09-19T13:04:21;97634.03;;;27.85;37.90
57086;BME280;42964;42.910;23.792;2023-09-19T13:09:28;97630.97;;;28.02;38.07
57086;BME280;42964;42.910;23.792;2023-09-19T13:14:33;97617.13;;;27.97;37.31
57086;BME280;42964;42.910;23.792;2023-09-19T13:19:41;97629.97;;;27.92;38.22
57086;BME280;42964;42.910;23.792;2023-09-19T13:24:40;97606.63;;;27.82;37.71
57086;BME280;42964;42.910;23.792;2023-09-19T13:29:40;97587.66;;;27.98;38.24
57086;BME280;42964;42.910;23.792;2023-09-19T13:34:39;97579.19;;;28.17;37.81
57086;BME280;42964;42.910;23.792;2023-09-19T13:39:38;97577.53;;;28.39;37.12
57086;BME280;42964;42.910;23.792;2023-09-19T13:44:41;97611.00;;;28.32;37.18
57086;BME280;42964;42.910;23.792;2023-09-19T13:49:40;97619.38;;;27.66;37.67
57086;BME280;42964;42.910;23.792;2023-09-19T13:54:39;97614.66;;;27.70;37.50
57086;BME280;42964;42.910;23.792;2023-09-19T13:59:38;97492.84;;;27.22;37.52
57086;BME280;42964;42.910;23.792;2023-09-19T14:04:37;97612.94;;;28.30;36.85
57086;BME280;42964;42.910;23.792;2023-09-19T14:09:37;97612.78;;;28.20;37.91
57086;BME280;42964;42.910;23.792;2023-09-19T14:14:36;97619.06;;;27.95;38.81
57086;BME280;42964;42.910;23.792;2023-09-19T14:19:35;97624.72;;;27.66;38.84
57086;BME280;42964;42.910;23.792;2023-09-19T14:24:35;97625.50;;;27.42;39.56
57086;BME280;42964;42.910;23.792;2023-09-19T14:29:34;97624.56;;;27.31;39.44
57086;BME280;42964;42.910;23.792;2023-09-19T14:34:35;97623.50;;;26.95;40.06
57086;BME280;42964;42.910;23.792;2023-09-19T14:39:41;97616.56;;;26.79;39.15
57086;BME280;42964;42.910;23.792;2023-09-19T14:44:43;97619.34;;;26.65;40.43
57086;BME280;42964;42.910;23.792;2023-09-19T14:49:42;97611.97;;;26.56;40.16
57086;BME280;42964;42.910;23.792;2023-09-19T14:54:41;97610.91;;;26.58;40.21
57086;BME280;42964;42.910;23.792;2023-09-19T14:59:40;97612.84;;;26.82;39.95
57086;BME280;42964;42.910;23.792;2023-09-19T15:04:39;97612.00;;;26.82;39.15
57086;BME280;42964;42.910;23.792;2023-09-19T15:09:39;97610.69;;;26.74;39.11
57086;BME280;42964;42.910;23.792;2023-09-19T15:14:38;97612.94;;;26.68;39.42
57086;BME280;42964;42.910;23.792;2023-09-19T15:19:37;97580.88;;;26.44;39.61
57086;BME280;42964;42.910;23.792;2023-09-19T15:24:36;97581.56;;;26.20;38.99
57086;BME280;42964;42.910;23.792;2023-09-19T15:29:35;97609.78;;;26.23;39.57
57086;BME280;42964;42.910;23.792;2023-09-19T15:34:34;97601.84;;;26.08;39.66
57086;BME280;42964;42.910;23.792;2023-09-19T15:39:33;97614.97;;;25.97;40.32
57086;BME280;42964;42.910;23.792;2023-09-19T15:44:32;97625.31;;;25.74;40.94
57086;BME280;42964;42.910;23.792;2023-09-19T15:49:31;97635.41;;;25.26;41.34
57086;BME280;42964;42.910;23.792;2023-09-19T15:54:30;97638.66;;;25.03;41.25
57086;BME280;42964;42.910;23.792;2023-09-19T15:59:31;97606.19;;;24.83;41.88
57086;BME280;42964;42.910;23.792;2023-09-19T16:04:30;97650.34;;;24.84;42.19
57086;BME280;42964;42.910;23.792;2023-09-19T16:09:29;97655.75;;;24.68;42.82
57086;BME280;42964;42.910;23.792;2023-09-19T16:14:28;97646.81;;;24.55;43.04
57086;BME280;42964;42.910;23.792;2023-09-19T16:19:29;97651.84;;;24.30;43.75
57086;BME280;42964;42.910;23.792;2023-09-19T16:24:28;97657.59;;;24.06;44.75
57086;BME280;42964;42.910;23.792;2023-09-19T16:29:27;97662.72;;;23.93;45.10
57086;BME280;42964;42.910;23.792;2023-09-19T16:34:26;97651.53;;;23.88;46.03
57086;BME280;42964;42.910;23.792;2023-09-19T16:39:25;97664.63;;;23.75;48.13
57086;BME280;42964;42.910;23.792;2023-09-19T16:44:24;97664.19;;;23.51;49.66
57086;BME280;42964;42.910;23.792;2023-09-19T16:49:23;97673.25;;;23.30;50.74
57086;BME280;42964;42.910;23.792;2023-09-19T16:54:23;97681.75;;;23.03;51.34
57086;BME280;42964;42.910;23.792;2023-09-19T16:59:22;97676.97;;;22.76;52.45
57086;BME280;42964;42.910;23.792;2023-09-19T17:04:22;97701.50;;;22.61;53.09
57086;BME280;42964;42.910;23.792;2023-09-19T17:09:21;97683.25;;;22.39;54.20
57086;BME280;42964;42.910;23.792;2023-09-19T17:14:20;97675.03;;;22.26;54.75
57086;BME280;42964;42.910;23.792;2023-09-19T17:19:19;97688.09;;;22.12;55.31
57086;BME280;42964;42.910;23.792;2023-09-19T17:24:21;97687.81;;;21.99;56.30
57086;BME280;42964;42.910;23.792;2023-09-19T17:29:20;97694.66;;;21.84;56.65
57086;BME280;42964;42.910;23.792;2023-09-19T17:34:19;97683.25;;;21.65;57.26
57086;BME280;42964;42.910;23.792;2023-09-19T17:39:19;97666.78;;;21.41;57.41
57086;BME280;42964;42.910;23.792;2023-09-19T17:44:18;97687.38;;;21.32;57.67
57086;BME280;42964;42.910;23.792;2023-09-19T17:49:17;97676.19;;;21.07;58.07
57086;BME280;42964;42.910;23.792;2023-09-19T17:54:15;97703.31;;;21.10;58.80
57086;BME280;42964;42.910;23.792;2023-09-19T17:59:15;97671.06;;;20.83;58.75
57086;BME280;42964;42.910;23.792;2023-09-19T18:04:14;97704.75;;;20.77;59.12
57086;BME280;42964;42.910;23.792;2023-09-19T18:09:13;97705.88;;;20.71;58.94
57086;BME280;42964;42.910;23.792;2023-09-19T18:14:13;97715.97;;;20.61;59.14
57086;BME280;42964;42.910;23.792;2023-09-19T18:19:15;97724.97;;;20.56;59.12
57086;BME280;42964;42.910;23.792;2023-09-19T18:24:14;97727.88;;;20.49;59.70
57086;BME280;42964;42.910;23.792;2023-09-19T18:29:13;97738.81;;;20.40;60.36
57086;BME280;42964;42.910;23.792;2023-09-19T18:34:13;97737.69;;;20.24;60.79
57086;BME280;42964;42.910;23.792;2023-09-19T18:39:12;97720.38;;;19.95;62.89
57086;BME280;42964;42.910;23.792;2023-09-19T18:44:13;97736.09;;;19.98;63.42
57086;BME280;42964;42.910;23.792;2023-09-19T18:49:13;97751.19;;;19.93;64.21
57086;BME280;42964;42.910;23.792;2023-09-19T18:54:12;97758.38;;;19.89;64.79
57086;BME280;42964;42.910;23.792;2023-09-19T18:59:12;97776.31;;;19.79;64.77
57086;BME280;42964;42.910;23.792;2023-09-19T19:04:12;97773.75;;;19.76;65.09
57086;BME280;42964;42.910;23.792;2023-09-19T19:09:11;97774.84;;;19.71;65.45
57086;BME280;42964;42.910;23.792;2023-09-19T19:14:10;97776.91;;;19.62;65.94
57086;BME280;42964;42.910;23.792;2023-09-19T19:19:10;97774.13;;;19.42;66.29
57086;BME280;42964;42.910;23.792;2023-09-19T19:24:09;97775.28;;;19.35;66.39
57086;BME280;42964;42.910;23.792;2023-09-19T19:29:08;97773.81;;;19.26;66.59
57086;BME280;42964;42.910;23.792;2023-09-19T19:34:08;97781.22;;;19.15;66.90
57086;BME280;42964;42.910;23.792;2023-09-19T19:39:08;97786.66;;;19.10;68.06
57086;BME280;42964;42.910;23.792;2023-09-19T19:44:06;97809.31;;;18.88;69.73
57086;BME280;42964;42.910;23.792;2023-09-19T19:49:06;97835.41;;;18.67;71.85
57086;BME280;42964;42.910;23.792;2023-09-19T19:54:06;97861.16;;;18.56;72.72
57086;BME280;42964;42.910;23.792;2023-09-19T19:59:06;97835.88;;;18.24;72.98
57086;BME280;42964;42.910;23.792;2023-09-19T20:04:05;97833.47;;;18.17;72.55
57086;BME280;42964;42.910;23.792;2023-09-19T20:09:04;97903.25;;;18.54;72.24
57086;BME280;42964;42.910;23.792;2023-09-19T20:14:04;97915.50;;;18.55;73.60
57086;BME280;42964;42.910;23.792;2023-09-19T20:19:04;97917.16;;;18.58;73.47
57086;BME280;42964;42.910;23.792;2023-09-19T20:24:03;97864.78;;;18.24;74.24
57086;BME280;42964;42.910;23.792;2023-09-19T20:29:08;97927.81;;;18.53;75.34
57086;BME280;42964;42.910;23.792;2023-09-19T20:34:07;97920.03;;;18.50;75.68
57086;BME280;42964;42.910;23.792;2023-09-19T20:39:08;97927.00;;;18.51;75.23
57086;BME280;42964;42.910;23.792;2023-09-19T20:44:08;97942.59;;;18.57;74.64
57086;BME280;42964;42.910;23.792;2023-09-19T20:49:09;97959.16;;;18.59;74.30
57086;BME280;42964;42.910;23.792;2023-09-19T20:54:08;97973.50;;;18.79;72.73
57086;BME280;42964;42.910;23.792;2023-09-19T20:59:07;97925.00;;;18.59;71.75
57086;BME280;42964;42.910;23.792;2023-09-19T21:04:06;97984.34;;;18.96;71.31
57086;BME280;42964;42.910;23.792;2023-09-19T21:09:05;97974.66;;;18.98;70.84
57086;BME280;42964;42.910;23.792;2023-09-19T21:14:06;98011.84;;;19.16;70.38
57086;BME280;42964;42.910;23.792;2023-09-19T21:19:05;98039.13;;;19.12;70.77
57086;BME280;42964;42.910;23.792;2023-09-19T21:24:06;98053.81;;;19.19;71.65
57086;BME280;42964;42.910;23.792;2023-09-19T21:29:08;98068.59;;;19.23;73.52
57086;BME280;42964;42.910;23.792;2023-09-19T21:34:07;98078.91;;;19.29;76.31
57086;BME280;42964;42.910;23.792;2023-09-19T21:39:08;98087.75;;;19.28;78.49
57086;BME280;42964;42.910;23.792;2023-09-19T21:44:07;98089.72;;;19.20;80.61
57086;BME280;42964;42.910;23.792;2023-09-19T21:49:06;98065.50;;;19.09;81.62
57086;BME280;42964;42.910;23.792;2023-09-19T21:54:05;97997.13;;;18.49;82.73
57086;BME280;42964;42.910;23.792;2023-09-19T21:59:04;97945.56;;;18.15;83.99
57086;BME280;42964;42.910;23.792;2023-09-19T22:04:03;97960.63;;;18.40;84.76
57086;BME280;42964;42.910;23.792;2023-09-19T22:09:03;97955.13;;;18.18;85.65
57086;BME280;42964;42.910;23.792;2023-09-19T22:14:02;97959.31;;;18.25;85.95
57086;BME280;42964;42.910;23.792;2023-09-19T22:19:01;97900.50;;;18.00;87.45
57086;BME280;42964;42.910;23.792;2023-09-19T22:24:00;97916.28;;;17.98;87.72
57086;BME280;42964;42.910;23.792;2023-09-19T22:28:59;97932.53;;;17.80;89.07
57086;BME280;42964;42.910;23.792;2023-09-19T22:33:58;97925.22;;;17.58;89.94
57086;BME280;42964;42.910;23.792;2023-09-19T22:38:57;97951.47;;;17.58;91.37
57086;BME280;42964;42.910;23.792;2023-09-19T22:43:59;97926.16;;;17.55;91.62
57086;BME280;42964;42.910;23.792;2023-09-19T22:48:58;97901.50;;;17.28;91.79
57086;BME280;42964;42.910;23.792;2023-09-19T22:53:59;97924.56;;;17.50;91.02
57086;BME280;42964;42.910;23.792;2023-09-19T22:58:58;97898.38;;;17.48;91.08
57086;BME280;42964;42.910;23.792;2023-09-19T23:03:57;97877.28;;;17.51;91.04
57086;BME280;42964;42.910;23.792;2023-09-19T23:09:23;97851.94;;;17.52;90.88
57086;BME280;42964;42.910;23.792;2023-09-19T23:14:25;97827.75;;;17.41;91.28
57086;BME280;42964;42.910;23.792;2023-09-19T23:19:31;97849.56;;;17.43;91.27
57086;BME280;42964;42.910;23.792;2023-09-19T23:24:31;97853.06;;;17.42;91.37
57086;BME280;42964;42.910;23.792;2023-09-19T23:29:33;97852.34;;;17.37;91.76
57086;BME280;42964;42.910;23.792;2023-09-19T23:34:34;97870.25;;;16.86;94.43
57086;BME280;42964;42.910;23.792;2023-09-19T23:39:33;97869.19;;;16.55;96.16
57086;BME280;42964;42.910;23.792;2023-09-19T23:44:33;97873.38;;;16.23;97.52
57086;BME280;42964;42.910;23.792;2023-09-19T23:49:33;97874.00;;;16.36;96.99
57086;BME280;42964;42.910;23.792;2023-09-19T23:54:32;97871.09;;;16.48;96.53
57086;BME280;42964;42.910;23.792;2023-09-19T23:59:33;97869.91;;;16.61;95.94
